createdAt,value
2019-01-15T00:02:20.619Z,84.48
2019-01-15T00:04:49.054Z,84.45
2019-01-15T00:07:17.496Z,84.56
2019-01-15T00:09:45.947Z,84.68
2019-01-15T00:12:14.498Z,84.53
2019-01-15T00:14:42.975Z,84.65
2019-01-15T00:17:11.510Z,84.60
2019-01-15T00:19:40.003Z,84.63
2019-01-15T00:22:08.628Z,84.78
2019-01-15T00:24:37.038Z,84.70
2019-01-15T00:27:05.492Z,84.64
2019-01-15T00:29:33.952Z,84.76
2019-01-15T00:32:02.455Z,84.92
2019-01-15T00:34:30.944Z,84.93
2019-01-15T00:36:59.620Z,84.94
2019-01-15T00:39:28.056Z,84.90
2019-01-15T00:41:56.510Z,84.89
2019-01-15T00:44:24.934Z,84.97
2019-01-15T00:46:53.345Z,85.00
2019-01-15T00:49:21.808Z,84.99
2019-01-15T00:51:50.242Z,85.03
2019-01-15T00:54:18.681Z,85.13
2019-01-15T00:56:47.167Z,85.15
2019-01-15T00:59:15.611Z,84.99
2019-01-15T01:01:44.261Z,85.02
2019-01-15T01:04:12.700Z,85.11
2019-01-15T01:06:41.130Z,85.17
2019-01-15T01:09:11.141Z,85.10
2019-01-15T01:11:39.995Z,85.12
2019-01-15T01:14:08.578Z,85.11
2019-01-15T01:16:37.010Z,85.11
2019-01-15T01:19:05.571Z,85.29
2019-01-15T01:21:34.070Z,85.36
2019-01-15T01:24:02.491Z,85.42
2019-01-15T01:26:31.001Z,85.58
2019-01-15T01:28:59.492Z,85.57
2019-01-15T01:31:28.011Z,85.46
2019-01-15T01:33:56.414Z,85.54
2019-01-15T01:36:24.867Z,85.71
2019-01-15T01:38:53.289Z,85.77
2019-01-15T01:41:21.746Z,85.98
2019-01-15T01:43:50.333Z,86.17
2019-01-15T01:46:18.843Z,86.36
2019-01-15T01:48:47.275Z,86.23
2019-01-15T01:51:16.199Z,86.35
2019-01-15T01:53:47.420Z,86.42
2019-01-15T01:56:15.867Z,86.54
2019-01-15T01:58:44.303Z,86.50
2019-01-15T02:01:12.813Z,86.65
2019-01-15T02:03:41.256Z,86.75
2019-01-15T02:06:09.756Z,86.90
2019-01-15T02:08:38.275Z,86.89
2019-01-15T02:11:06.732Z,86.78
2019-01-15T02:13:35.156Z,86.88
2019-01-15T02:16:03.655Z,87.02
2019-01-15T02:18:32.103Z,87.05
2019-01-15T02:21:00.589Z,86.92
2019-01-15T02:23:29.035Z,86.85
2019-01-15T02:25:57.474Z,86.85
2019-01-15T02:28:25.915Z,86.70
2019-01-15T02:30:54.890Z,86.72
2019-01-15T02:33:25.039Z,86.63
2019-01-15T02:35:53.458Z,86.72
2019-01-15T02:38:21.940Z,86.89
2019-01-15T02:40:50.363Z,87.13
2019-01-15T02:43:18.837Z,87.29
2019-01-15T02:45:47.256Z,87.28
2019-01-15T02:48:15.707Z,87.27
2019-01-15T02:50:44.142Z,87.19
2019-01-15T02:53:12.644Z,87.09
2019-01-15T02:55:41.068Z,87.11
2019-01-15T02:58:09.567Z,87.20
2019-01-15T03:00:38.041Z,87.14
2019-01-15T03:03:06.715Z,87.16
2019-01-15T03:05:35.127Z,87.04
2019-01-15T03:08:03.727Z,87.02
2019-01-15T03:10:32.207Z,87.07
2019-01-15T03:13:00.798Z,87.24
2019-01-15T03:15:29.210Z,87.27
2019-01-15T03:17:57.633Z,87.37
2019-01-15T03:20:26.144Z,87.42
2019-01-15T03:22:54.598Z,87.50
2019-01-15T03:25:23.115Z,87.65
2019-01-15T03:27:51.614Z,87.79
2019-01-15T03:30:22.245Z,87.88
2019-01-15T03:32:50.792Z,88.08
2019-01-15T03:35:19.395Z,88.14
2019-01-15T03:37:47.814Z,88.20
2019-01-15T03:40:21.994Z,88.16
2019-01-15T03:42:50.544Z,88.16
2019-01-15T03:45:19.014Z,88.08
2019-01-15T03:47:47.420Z,88.21
2019-01-15T03:50:16.092Z,88.22
2019-01-15T03:52:44.574Z,88.20
2019-01-15T03:55:14.743Z,88.04
2019-01-15T03:57:43.803Z,87.99
2019-01-15T04:00:15.335Z,88.04
2019-01-15T04:02:44.500Z,88.18
2019-01-15T04:05:13.764Z,88.27
2019-01-15T04:07:43.136Z,88.26
2019-01-15T04:10:12.091Z,88.25
2019-01-15T04:12:40.603Z,88.44
2019-01-15T04:15:13.289Z,88.46
2019-01-15T04:17:42.163Z,88.47
2019-01-15T04:20:17.659Z,88.57
2019-01-15T04:22:46.602Z,88.64
2019-01-15T04:25:15.890Z,88.69
2019-01-15T04:27:44.492Z,88.78
2019-01-15T04:30:15.788Z,88.81
2019-01-15T04:32:44.366Z,88.82
2019-01-15T04:35:13.027Z,88.85
2019-01-15T04:37:41.484Z,88.88
2019-01-15T04:40:13.157Z,88.97
2019-01-15T04:42:41.612Z,88.95
2019-01-15T04:45:13.055Z,88.99
2019-01-15T04:47:41.563Z,89.05
2019-01-15T04:50:10.995Z,89.19
2019-01-15T04:52:41.277Z,89.38
2019-01-15T04:55:11.507Z,89.48
2019-01-15T04:57:40.025Z,89.45
2019-01-15T05:00:14.383Z,89.42
2019-01-15T05:02:43.128Z,89.45
2019-01-15T05:05:13.684Z,89.33
2019-01-15T05:07:42.192Z,89.33
2019-01-15T05:10:15.381Z,89.37
2019-01-15T05:12:43.829Z,89.42
2019-01-15T05:15:14.479Z,89.41
2019-01-15T05:17:43.004Z,89.45
2019-01-15T05:20:17.016Z,89.52
2019-01-15T05:22:45.513Z,89.68
2019-01-15T05:25:19.151Z,89.73
2019-01-15T05:27:47.616Z,89.72
2019-01-15T05:30:23.959Z,89.66
2019-01-15T05:32:52.712Z,89.69
2019-01-15T05:35:21.234Z,89.63
2019-01-15T05:37:49.665Z,89.74
2019-01-15T05:40:18.358Z,89.63
2019-01-15T05:42:46.845Z,89.56
2019-01-15T05:45:18.963Z,89.55
2019-01-15T05:47:48.261Z,89.39
2019-01-15T05:50:18.417Z,89.34
2019-01-15T05:52:46.842Z,89.23
2019-01-15T05:55:15.463Z,89.02
2019-01-15T05:57:43.909Z,88.86
2019-01-15T06:00:17.048Z,88.81
2019-01-15T06:02:45.433Z,88.67
2019-01-15T06:05:14.519Z,88.61
2019-01-15T06:07:42.997Z,88.71
2019-01-15T06:10:13.840Z,88.73
2019-01-15T06:12:42.423Z,88.63
2019-01-15T06:15:13.339Z,88.40
2019-01-15T06:17:41.774Z,88.33
2019-01-15T06:20:13.281Z,88.29
2019-01-15T06:22:41.796Z,88.35
2019-01-15T06:25:11.056Z,88.32
2019-01-15T06:27:39.565Z,88.32
2019-01-15T06:30:13.731Z,88.26
2019-01-15T06:32:42.355Z,88.25
2019-01-15T06:35:11.104Z,88.20
2019-01-15T06:37:39.616Z,88.23
2019-01-15T06:40:20.405Z,88.24
2019-01-15T06:42:49.187Z,88.10
2019-01-15T06:45:23.490Z,87.95
2019-01-15T06:47:52.006Z,88.02
2019-01-15T06:50:20.575Z,88.08
2019-01-15T06:52:49.120Z,88.08
2019-01-15T06:55:19.986Z,88.12
2019-01-15T06:57:48.499Z,88.07
2019-01-15T07:00:28.570Z,88.02
2019-01-15T07:02:57.557Z,87.99
2019-01-15T07:05:26.069Z,87.95
2019-01-15T07:07:54.592Z,88.01
2019-01-15T07:10:31.767Z,88.06
2019-01-15T07:13:00.334Z,88.16
2019-01-15T07:15:28.821Z,88.10
2019-01-15T07:17:57.335Z,88.21
2019-01-15T07:20:26.307Z,88.36
2019-01-15T07:22:54.844Z,88.43
2019-01-15T07:25:26.245Z,88.39
2019-01-15T07:27:54.685Z,88.42
2019-01-15T07:30:26.176Z,88.50
2019-01-15T07:32:55.418Z,88.63
2019-01-15T07:35:24.050Z,88.64
2019-01-15T07:37:52.610Z,88.65
2019-01-15T07:40:21.130Z,88.74
2019-01-15T07:42:49.552Z,88.87
2019-01-15T07:45:18.437Z,88.69
2019-01-15T07:47:46.927Z,88.65
2019-01-15T07:50:20.369Z,88.74
2019-01-15T07:52:49.635Z,88.85
2019-01-15T07:55:19.997Z,88.92
2019-01-15T07:57:48.418Z,88.96
2019-01-15T08:00:26.632Z,89.06
2019-01-15T08:02:55.503Z,89.03
2019-01-15T08:05:28.405Z,88.99
2019-01-15T08:07:57.071Z,88.88
2019-01-15T08:10:25.598Z,88.93
2019-01-15T08:12:54.153Z,88.94
2019-01-15T08:15:27.738Z,89.05
2019-01-15T08:17:56.311Z,89.10
2019-01-15T08:20:24.883Z,89.15
2019-01-15T08:22:53.463Z,89.15
2019-01-15T08:25:21.958Z,89.16
2019-01-15T08:27:50.509Z,89.11
2019-01-15T08:30:27.474Z,89.04
2019-01-15T08:32:56.074Z,89.00
2019-01-15T08:35:24.842Z,88.96
2019-01-15T08:37:53.286Z,88.94
2019-01-15T08:40:21.842Z,88.97
2019-01-15T08:42:50.268Z,89.00
2019-01-15T08:45:19.332Z,88.99
2019-01-15T08:47:50.262Z,89.02
2019-01-15T08:50:21.236Z,89.06
2019-01-15T08:52:50.112Z,89.09
2019-01-15T08:55:18.542Z,89.07
2019-01-15T08:57:47.005Z,89.07
2019-01-15T09:00:15.860Z,89.07
2019-01-15T09:02:44.378Z,88.88
2019-01-15T09:05:13.155Z,88.81
2019-01-15T09:07:41.583Z,88.64
2019-01-15T09:10:15.295Z,88.70
2019-01-15T09:12:44.046Z,88.55
2019-01-15T09:15:20.979Z,88.56
2019-01-15T09:17:49.494Z,88.45
2019-01-15T09:20:19.907Z,88.39
2019-01-15T09:22:48.472Z,88.42
2019-01-15T09:25:17.065Z,88.29
2019-01-15T09:27:45.607Z,88.32
2019-01-15T09:30:16.385Z,88.20
2019-01-15T09:32:44.967Z,88.08
2019-01-15T09:35:13.645Z,87.99
2019-01-15T09:37:42.612Z,87.82
2019-01-15T09:40:13.967Z,87.78
2019-01-15T09:42:42.460Z,87.62
2019-01-15T09:45:14.123Z,87.29
2019-01-15T09:47:44.357Z,87.07
2019-01-15T09:50:13.433Z,87.03
2019-01-15T09:52:42.374Z,86.61
2019-01-15T09:55:10.889Z,86.35
2019-01-15T09:57:39.404Z,86.29
2019-01-15T10:00:16.503Z,86.47
2019-01-15T10:02:44.946Z,86.24
2019-01-15T10:05:13.514Z,86.07
2019-01-15T10:07:41.991Z,85.79
2019-01-15T10:10:13.320Z,85.58
2019-01-15T10:12:41.913Z,85.54
2019-01-15T10:15:21.759Z,85.06
2019-01-15T10:17:50.387Z,85.08
2019-01-15T10:20:19.459Z,85.09
2019-01-15T10:22:48.961Z,84.90
2019-01-15T10:25:27.993Z,84.98
2019-01-15T10:27:57.634Z,84.80
2019-01-15T10:30:39.882Z,84.21
2019-01-15T10:33:14.266Z,83.80
2019-01-15T10:35:54.694Z,83.85
2019-01-15T10:38:28.935Z,83.82
2019-01-15T10:40:58.094Z,83.39
2019-01-15T10:43:27.470Z,83.14
2019-01-15T10:45:56.069Z,82.96
2019-01-15T10:48:24.849Z,82.68
2019-01-15T10:50:53.526Z,82.60
2019-01-15T10:53:22.152Z,82.24
2019-01-15T10:55:50.604Z,82.38
2019-01-15T10:58:19.081Z,82.29
2019-01-15T11:00:47.598Z,82.12
2019-01-15T11:03:16.024Z,81.50
2019-01-15T11:05:44.790Z,81.36
2019-01-15T11:08:13.279Z,81.21
2019-01-15T11:10:41.769Z,80.82
2019-01-15T11:13:10.335Z,80.57
2019-01-15T11:15:43.095Z,80.12
2019-01-15T11:18:09.123Z,79.69
2019-01-15T11:20:37.718Z,79.90
2019-01-15T11:23:06.295Z,79.79
2019-01-15T11:25:34.820Z,79.77
2019-01-15T11:28:04.914Z,79.60
2019-01-15T11:30:33.415Z,79.43
2019-01-15T11:33:01.841Z,79.24
2019-01-15T11:35:30.566Z,79.00
2019-01-15T11:37:58.983Z,78.55
2019-01-15T11:40:27.417Z,78.26
2019-01-15T11:42:55.911Z,77.67
2019-01-15T11:45:24.604Z,77.07
2019-01-15T11:47:53.363Z,76.99
2019-01-15T11:50:23.383Z,76.78
2019-01-15T11:52:51.972Z,76.56
2019-01-15T11:55:21.365Z,76.46
2019-01-15T11:57:51.015Z,76.48
2019-01-15T12:00:38.630Z,75.94
2019-01-15T12:03:11.812Z,75.87
2019-01-15T12:05:41.996Z,75.65
2019-01-15T12:08:28.159Z,75.58
2019-01-15T12:11:00.662Z,75.20
2019-01-15T12:13:42.464Z,75.14
2019-01-15T12:16:12.545Z,75.30
2019-01-15T12:18:51.364Z,75.26
2019-01-15T12:21:21.480Z,75.48
2019-01-15T12:24:07.475Z,75.80
2019-01-15T12:26:37.699Z,75.89
2019-01-15T12:29:24.389Z,75.90
2019-01-15T12:31:54.487Z,75.60
2019-01-15T12:34:40.771Z,75.46
2019-01-15T12:37:26.844Z,75.57
2019-01-15T12:40:06.853Z,75.84
2019-01-15T12:42:53.200Z,75.35
2019-01-15T12:45:32.734Z,75.24
2019-01-15T12:48:19.559Z,75.22
2019-01-15T12:50:49.850Z,75.45
2019-01-15T12:53:36.587Z,75.38
2019-01-15T12:56:19.289Z,75.60
2019-01-15T12:58:49.383Z,75.54
2019-01-15T13:01:35.913Z,75.23
2019-01-15T13:04:21.195Z,75.45
2019-01-15T13:06:51.333Z,75.18
2019-01-15T13:09:24.069Z,75.33
2019-01-15T13:11:57.093Z,75.15
2019-01-15T13:14:42.024Z,75.29
2019-01-15T13:17:27.301Z,75.33
2019-01-15T13:19:57.437Z,75.52
2019-01-15T13:22:28.452Z,75.21
2019-01-15T13:25:16.659Z,75.15
2019-01-15T13:27:49.411Z,75.40
2019-01-15T13:30:19.646Z,75.27
2019-01-15T13:32:55.773Z,75.52
2019-01-15T13:35:31.922Z,75.44
2019-01-15T13:38:01.986Z,75.45
2019-01-15T13:40:35.094Z,75.82
2019-01-15T13:43:23.707Z,76.07
2019-01-15T13:46:00.705Z,76.01
2019-01-15T13:48:28.801Z,76.16
2019-01-15T13:51:07.880Z,76.15
2019-01-15T13:53:41.332Z,76.43
2019-01-15T13:56:27.683Z,76.58
2019-01-15T13:59:03.671Z,76.66
2019-01-15T14:01:48.915Z,76.83
2019-01-15T14:04:27.714Z,76.86
2019-01-15T14:07:14.520Z,77.09
2019-01-15T14:09:59.749Z,77.15
2019-01-15T14:12:41.608Z,77.26
2019-01-15T14:15:11.992Z,77.26
2019-01-15T14:17:44.568Z,77.23
2019-01-15T14:20:31.324Z,77.23
2019-01-15T14:23:16.377Z,77.31
2019-01-15T14:25:49.214Z,77.38
2019-01-15T14:28:31.297Z,77.35
2019-01-15T14:31:01.443Z,77.56
2019-01-15T14:33:34.567Z,77.73
2019-01-15T14:36:16.646Z,77.87
2019-01-15T14:38:46.863Z,78.00
2019-01-15T14:41:16.922Z,78.05
2019-01-15T14:43:53.123Z,78.20
2019-01-15T14:46:39.741Z,78.31
2019-01-15T14:49:12.932Z,78.44
2019-01-15T14:51:59.799Z,78.50
2019-01-15T14:54:38.848Z,78.51
2019-01-15T14:57:17.992Z,78.62
2019-01-15T14:59:48.098Z,78.67
2019-01-15T15:02:33.518Z,78.74
2019-01-15T15:05:19.936Z,78.81
2019-01-15T15:07:59.007Z,78.91
2019-01-15T15:10:29.087Z,79.01
2019-01-15T15:12:59.241Z,79.23
2019-01-15T15:15:29.494Z,79.33
2019-01-15T15:18:11.629Z,79.38
2019-01-15T15:20:51.049Z,79.56
2019-01-15T15:23:21.189Z,79.69
2019-01-15T15:26:00.022Z,79.74
2019-01-15T15:28:36.098Z,79.77
2019-01-15T15:31:10.951Z,79.79
2019-01-15T15:33:45.263Z,79.81
2019-01-15T15:36:30.681Z,79.79
2019-01-15T15:39:15.735Z,79.85
2019-01-15T15:41:45.811Z,79.90
2019-01-15T15:44:31.293Z,80.05
2019-01-15T15:47:17.805Z,80.09
2019-01-15T15:50:03.945Z,80.23
2019-01-15T15:52:46.585Z,80.17
2019-01-15T15:55:35.032Z,80.05
2019-01-15T15:58:14.664Z,79.95
2019-01-15T16:00:47.556Z,80.14
2019-01-15T16:03:36.193Z,80.15
2019-01-15T16:06:09.727Z,80.12
2019-01-15T16:08:39.929Z,80.11
2019-01-15T16:11:15.726Z,80.14
2019-01-15T16:13:54.979Z,80.10
2019-01-15T16:16:40.072Z,80.17
2019-01-15T16:19:10.164Z,80.30
2019-01-15T16:21:46.169Z,80.31
2019-01-15T16:24:32.984Z,80.36
2019-01-15T16:27:18.168Z,80.45
2019-01-15T16:29:48.310Z,80.53
2019-01-15T16:32:18.365Z,80.62
2019-01-15T16:34:51.321Z,80.68
2019-01-15T16:37:27.399Z,80.73
2019-01-15T16:40:09.277Z,80.87
2019-01-15T16:42:48.391Z,80.93
2019-01-15T16:45:30.778Z,80.91
2019-01-15T16:48:12.638Z,80.96
2019-01-15T16:50:49.149Z,80.86
2019-01-15T16:53:22.163Z,81.00
2019-01-15T16:55:58.680Z,81.15
2019-01-15T16:58:34.104Z,81.29
2019-01-15T17:01:20.667Z,81.37
2019-01-15T17:03:50.881Z,81.40
2019-01-15T17:06:27.075Z,81.30
2019-01-15T17:09:03.242Z,81.30
2019-01-15T17:11:51.217Z,81.19
2019-01-15T17:14:24.421Z,81.05
2019-01-15T17:16:54.465Z,81.17
2019-01-15T17:19:27.249Z,81.06
2019-01-15T17:22:13.484Z,81.07
2019-01-15T17:24:49.406Z,81.00
2019-01-15T17:27:19.581Z,80.87
2019-01-15T17:30:08.052Z,80.70
2019-01-15T17:32:38.150Z,80.67
2019-01-15T17:35:11.617Z,80.50
2019-01-15T17:37:50.723Z,80.30
2019-01-15T17:40:37.046Z,80.51
2019-01-15T17:43:13.412Z,80.51
2019-01-15T17:45:46.473Z,80.41
2019-01-15T17:48:17.389Z,80.39
2019-01-15T17:51:03.718Z,80.41
2019-01-15T17:53:39.622Z,80.37
2019-01-15T17:56:12.851Z,80.45
2019-01-15T17:58:55.168Z,80.40
2019-01-15T18:01:37.562Z,80.50
2019-01-15T18:04:23.529Z,80.53
2019-01-15T18:07:10.011Z,80.55
2019-01-15T18:09:40.123Z,80.63
2019-01-15T18:12:19.002Z,80.60
2019-01-15T18:14:49.167Z,80.37
2019-01-15T18:17:19.572Z,80.51
2019-01-15T18:20:04.640Z,80.59
2019-01-15T18:22:34.775Z,80.15
2019-01-15T18:25:07.904Z,80.21
2019-01-15T18:27:49.669Z,80.30
2019-01-15T18:30:35.906Z,80.37
2019-01-15T18:33:23.513Z,80.12
2019-01-15T18:35:56.656Z,80.20
2019-01-15T18:38:26.872Z,80.09
2019-01-15T18:41:02.812Z,79.98
2019-01-15T18:43:50.883Z,79.90
2019-01-15T18:46:24.147Z,80.01
2019-01-15T18:48:57.741Z,79.87
2019-01-15T18:51:27.906Z,79.96
2019-01-15T18:54:14.249Z,79.77
2019-01-15T18:56:47.201Z,79.85
2019-01-15T18:59:33.699Z,79.96
2019-01-15T19:02:20.159Z,79.91
2019-01-15T19:04:50.280Z,79.86
2019-01-15T19:07:23.137Z,79.89
2019-01-15T19:10:09.709Z,79.99
2019-01-15T19:12:46.032Z,80.07
2019-01-15T19:15:25.668Z,79.87
2019-01-15T19:18:12.047Z,80.15
2019-01-15T19:20:58.624Z,80.12
2019-01-15T19:23:28.874Z,80.13
2019-01-15T19:26:17.497Z,80.18
2019-01-15T19:29:04.092Z,80.10
2019-01-15T19:31:49.023Z,80.12
2019-01-15T19:34:37.459Z,80.14
2019-01-15T19:37:19.872Z,80.03
2019-01-15T19:39:53.071Z,79.96
2019-01-15T19:42:23.138Z,80.13
2019-01-15T19:44:53.414Z,80.11
2019-01-15T19:47:38.329Z,80.21
2019-01-15T19:50:23.078Z,80.40
2019-01-15T19:53:09.734Z,80.37
2019-01-15T19:55:39.943Z,80.37
2019-01-15T19:58:10.309Z,80.48
2019-01-15T20:00:46.306Z,80.53
2019-01-15T20:03:32.665Z,80.57
2019-01-15T20:06:03.603Z,80.38
2019-01-15T20:08:39.529Z,80.56
2019-01-15T20:11:26.069Z,80.77
2019-01-15T20:13:59.372Z,80.72
2019-01-15T20:16:29.511Z,80.79
2019-01-15T20:19:02.446Z,80.91
2019-01-15T20:21:53.137Z,81.08
2019-01-15T20:24:28.699Z,81.28
2019-01-15T20:27:01.456Z,81.12
2019-01-15T20:29:40.330Z,81.24
2019-01-15T20:32:16.626Z,81.35
2019-01-15T20:34:55.435Z,81.18
2019-01-15T20:37:28.625Z,81.06
2019-01-15T20:40:07.670Z,80.90
2019-01-15T20:42:37.893Z,80.95
2019-01-15T20:45:15.560Z,81.05
2019-01-15T20:48:03.678Z,81.05
2019-01-15T20:50:40.115Z,81.26
2019-01-15T20:53:10.286Z,81.15
2019-01-15T20:55:56.926Z,81.31
2019-01-15T20:58:35.867Z,81.36
2019-01-15T21:01:08.840Z,81.41
2019-01-15T21:03:44.969Z,81.28
2019-01-15T21:06:18.214Z,81.36
2019-01-15T21:08:57.689Z,81.39
2019-01-15T21:11:44.239Z,81.33
2019-01-15T21:14:20.479Z,81.35
2019-01-15T21:17:07.093Z,81.47
2019-01-15T21:19:37.210Z,81.55
2019-01-15T21:22:25.516Z,81.53
2019-01-15T21:25:01.954Z,81.49
2019-01-15T21:27:44.351Z,81.56
2019-01-15T21:30:21.404Z,81.46
2019-01-15T21:33:03.910Z,81.61
2019-01-15T21:35:37.016Z,81.67
2019-01-15T21:38:22.415Z,81.70
2019-01-15T21:40:58.612Z,81.80
2019-01-15T21:43:28.805Z,81.84
2019-01-15T21:46:04.961Z,82.06
2019-01-15T21:48:51.572Z,82.02
2019-01-15T21:51:27.829Z,82.01
2019-01-15T21:54:07.206Z,82.11
2019-01-15T21:56:53.525Z,82.31
2019-01-15T21:59:32.666Z,82.38
2019-01-15T22:02:20.758Z,82.26
2019-01-15T22:05:02.476Z,82.19
2019-01-15T22:07:41.548Z,82.25
2019-01-15T22:10:14.584Z,82.38
2019-01-15T22:12:53.624Z,82.50
2019-01-15T22:15:23.827Z,82.61
2019-01-15T22:17:54.075Z,82.69
2019-01-15T22:20:39.561Z,82.82
2019-01-15T22:23:12.706Z,82.95
2019-01-15T22:25:59.187Z,82.94
2019-01-15T22:28:34.986Z,83.09
2019-01-15T22:31:08.085Z,83.21
2019-01-15T22:33:43.913Z,83.05
2019-01-15T22:36:19.851Z,83.13
2019-01-15T22:38:50.026Z,83.18
2019-01-15T22:41:32.015Z,83.13
2019-01-15T22:44:10.831Z,83.17
2019-01-15T22:46:57.387Z,83.22
2019-01-15T22:49:30.506Z,83.26
2019-01-15T22:52:16.815Z,83.22
2019-01-15T22:54:46.909Z,83.33
2019-01-15T22:57:26.059Z,83.30
2019-01-15T23:00:12.379Z,83.29
2019-01-15T23:02:45.478Z,83.46
2019-01-15T23:05:24.241Z,83.36
2019-01-15T23:07:54.430Z,83.53
2019-01-15T23:10:33.873Z,83.53
2019-01-15T23:13:09.804Z,83.55
2019-01-15T23:15:39.862Z,83.52
2019-01-15T23:18:10.111Z,83.47
2019-01-15T23:20:43.110Z,83.44
2019-01-15T23:23:21.902Z,83.77
2019-01-15T23:25:54.896Z,83.83
2019-01-15T23:28:28.124Z,83.83
2019-01-15T23:31:15.064Z,83.85
2019-01-15T23:33:57.304Z,83.92
2019-01-15T23:36:30.589Z,84.15
2019-01-15T23:39:00.761Z,84.29
2019-01-15T23:41:37.362Z,84.49
2019-01-15T23:44:23.780Z,84.74
2019-01-15T23:46:59.622Z,85.08
2019-01-15T23:49:38.952Z,85.31
2019-01-15T23:52:25.762Z,85.53
2019-01-15T23:55:08.090Z,85.61
2019-01-15T23:57:47.179Z,85.79
